createdAt,value
2022-11-02T00:00:15.078Z,2.63
2022-11-02T00:02:41.997Z,2.40
2022-11-02T00:05:12.630Z,1.23
2022-11-02T00:07:40.026Z,2.92
2022-11-02T00:10:07.980Z,1.33
2022-11-02T00:12:35.226Z,0.98
2022-11-02T00:15:02.265Z,1.75
2022-11-02T00:17:30.214Z,2.75
2022-11-02T00:19:57.468Z,2.67
2022-11-02T00:22:26.451Z,0.98
2022-11-02T00:24:53.461Z,2.03
2022-11-02T00:27:20.551Z,1.88
2022-11-02T00:29:47.657Z,0.70
2022-11-02T00:32:14.657Z,2.13
2022-11-02T00:34:41.754Z,1.73
2022-11-02T00:37:08.392Z,1.77
2022-11-02T00:39:35.316Z,1.67
2022-11-02T00:42:01.897Z,2.15
2022-11-02T00:44:28.410Z,2.65
2022-11-02T00:46:55.658Z,3.47
2022-11-02T00:49:22.825Z,2.17
2022-11-02T00:51:50.004Z,2.20
2022-11-02T00:54:16.597Z,3.33
2022-11-02T00:56:44.115Z,2.10
2022-11-02T00:59:10.904Z,4.20
2022-11-02T01:01:38.085Z,3.33
2022-11-02T01:04:05.273Z,4.53
2022-11-02T01:06:32.397Z,3.72
2022-11-02T01:08:58.914Z,4.90
2022-11-02T01:11:25.473Z,0.63
2022-11-02T01:13:52.860Z,1.00
2022-11-02T01:16:20.019Z,1.98
2022-11-02T01:18:46.730Z,2.78
2022-11-02T01:21:13.809Z,2.13
2022-11-02T01:23:40.409Z,1.17
2022-11-02T01:26:09.195Z,1.92
2022-11-02T01:28:37.059Z,1.55
2022-11-02T01:31:03.976Z,1.13
2022-11-02T01:33:31.092Z,0.30
2022-11-02T01:35:58.453Z,1.08
2022-11-02T01:38:25.982Z,2.53
2022-11-02T01:40:53.525Z,1.60
2022-11-02T01:43:31.826Z,1.33
2022-11-02T01:46:12.377Z,2.33
2022-11-02T01:49:07.046Z,0.93
2022-11-02T01:51:40.176Z,2.60
2022-11-02T01:54:13.083Z,2.90
2022-11-02T01:56:41.747Z,1.27
2022-11-02T01:59:15.497Z,1.88
2022-11-02T02:01:42.909Z,1.77
2022-11-02T02:04:12.887Z,1.60
2022-11-02T02:06:40.714Z,5.10
2022-11-02T02:09:09.533Z,2.83
2022-11-02T02:11:39.043Z,3.60
2022-11-02T02:14:13.388Z,3.28
2022-11-02T02:16:49.406Z,3.80
2022-11-02T02:19:33.720Z,3.40
2022-11-02T02:22:28.690Z,3.08
2022-11-02T02:25:20.734Z,1.73
2022-11-02T02:28:07.008Z,2.47
2022-11-02T02:30:47.404Z,2.50
2022-11-02T02:33:27.208Z,2.58
2022-11-02T02:36:00.720Z,2.47
2022-11-02T02:38:34.588Z,2.78
2022-11-02T02:41:30.362Z,5.43
2022-11-02T02:44:00.557Z,4.80
2022-11-02T02:46:56.118Z,3.60
2022-11-02T02:49:36.705Z,5.70
2022-11-02T02:52:04.000Z,3.10
2022-11-02T02:54:35.928Z,4.28
2022-11-02T02:57:09.997Z,6.47
2022-11-02T02:59:42.657Z,4.07
2022-11-02T03:02:16.143Z,6.88
2022-11-02T03:04:42.825Z,3.95
2022-11-02T03:07:14.030Z,7.15
2022-11-02T03:09:55.849Z,2.17
2022-11-02T03:12:44.279Z,3.80
2022-11-02T03:15:23.440Z,6.05
2022-11-02T03:18:19.957Z,6.85
2022-11-02T03:21:11.544Z,2.75
2022-11-02T03:23:44.081Z,3.28
2022-11-02T03:26:31.605Z,3.90
2022-11-02T03:29:18.384Z,3.22
2022-11-02T03:31:56.940Z,3.97
2022-11-02T03:34:39.664Z,3.17
2022-11-02T03:37:17.140Z,3.13
2022-11-02T03:39:54.339Z,9.15
2022-11-02T03:42:25.390Z,2.50
2022-11-02T03:45:00.869Z,3.03
2022-11-02T03:47:31.205Z,3.78
2022-11-02T03:50:00.740Z,4.47
2022-11-02T03:52:30.265Z,6.22
2022-11-02T03:55:08.380Z,5.78
2022-11-02T03:57:45.549Z,4.00
2022-11-02T04:00:16.087Z,3.92
2022-11-02T04:02:46.681Z,5.03
2022-11-02T04:05:13.381Z,7.63
2022-11-02T04:08:03.039Z,7.00
2022-11-02T04:10:30.389Z,5.53
2022-11-02T04:13:15.929Z,4.60
2022-11-02T04:15:43.194Z,5.68
2022-11-02T04:18:28.569Z,3.88
2022-11-02T04:20:55.621Z,7.40
2022-11-02T04:23:40.773Z,6.60
2022-11-02T04:26:07.829Z,4.90
2022-11-02T04:28:34.983Z,10.68
2022-11-02T04:31:01.988Z,7.25
2022-11-02T04:33:35.150Z,5.13
2022-11-02T04:36:08.568Z,8.63
2022-11-02T04:38:41.629Z,5.35
2022-11-02T04:41:34.875Z,5.88
2022-11-02T04:44:01.512Z,7.70
2022-11-02T04:46:31.843Z,4.55
2022-11-02T04:48:59.175Z,9.82
2022-11-02T04:51:27.371Z,8.02
2022-11-02T04:53:56.168Z,5.60
2022-11-02T04:56:23.865Z,6.70
2022-11-02T04:58:52.274Z,6.45
2022-11-02T05:01:20.149Z,5.47
2022-11-02T05:03:48.872Z,9.63
2022-11-02T05:06:20.188Z,8.60
2022-11-02T05:08:47.672Z,6.00
2022-11-02T05:11:14.942Z,5.55
2022-11-02T05:13:42.651Z,6.57
2022-11-02T05:16:13.628Z,8.10
2022-11-02T05:18:40.682Z,9.35
2022-11-02T05:21:07.350Z,5.03
2022-11-02T05:23:34.550Z,6.57
2022-11-02T05:26:04.276Z,3.50
2022-11-02T05:28:32.495Z,5.70
2022-11-02T05:31:01.926Z,6.20
2022-11-02T05:33:32.705Z,6.85
2022-11-02T05:36:00.709Z,7.30
2022-11-02T05:38:28.004Z,9.43
2022-11-02T05:40:57.079Z,5.95
2022-11-02T05:43:24.559Z,9.60
2022-11-02T05:46:00.792Z,5.18
2022-11-02T05:48:31.165Z,8.90
2022-11-02T05:51:00.081Z,8.00
2022-11-02T05:53:28.146Z,3.97
2022-11-02T05:55:59.120Z,9.63
2022-11-02T05:58:26.949Z,7.38
2022-11-02T06:00:54.002Z,6.10
2022-11-02T06:03:21.125Z,8.82
2022-11-02T06:05:47.796Z,4.88
2022-11-02T06:08:14.968Z,9.73
2022-11-02T06:10:43.352Z,9.20
2022-11-02T06:13:10.221Z,6.25
2022-11-02T06:15:36.845Z,8.45
2022-11-02T06:18:04.023Z,8.27
2022-11-02T06:20:30.623Z,6.63
2022-11-02T06:22:57.267Z,6.47
2022-11-02T06:25:23.879Z,1.92
2022-11-02T06:27:53.194Z,5.03
2022-11-02T06:30:19.829Z,4.72
2022-11-02T06:32:50.738Z,3.38
2022-11-02T06:35:18.724Z,5.25
2022-11-02T06:37:45.962Z,5.60
2022-11-02T06:40:14.598Z,6.28
2022-11-02T06:42:45.332Z,5.13
2022-11-02T06:45:17.174Z,5.55
2022-11-02T06:47:43.749Z,7.30
2022-11-02T06:50:10.542Z,5.10
2022-11-02T06:52:43.179Z,4.80
2022-11-02T06:55:09.708Z,7.30
2022-11-02T06:57:37.136Z,6.45
2022-11-02T07:00:11.147Z,4.60
2022-11-02T07:02:38.279Z,7.38
2022-11-02T07:05:05.293Z,4.95
2022-11-02T07:07:31.836Z,5.18
2022-11-02T07:09:58.379Z,4.15
2022-11-02T07:12:24.882Z,6.32
2022-11-02T07:14:51.905Z,7.80
2022-11-02T07:17:19.058Z,4.55
2022-11-02T07:19:45.573Z,3.38
2022-11-02T07:22:12.565Z,2.35
2022-11-02T07:24:39.535Z,4.35
2022-11-02T07:27:06.097Z,4.22
2022-11-02T07:29:33.095Z,8.50
2022-11-02T07:32:00.170Z,3.10
2022-11-02T07:34:27.211Z,5.07
2022-11-02T07:36:55.490Z,7.53
2022-11-02T07:39:22.072Z,3.92
2022-11-02T07:41:51.911Z,4.63
2022-11-02T07:44:19.685Z,4.90
2022-11-02T07:46:46.734Z,8.10
2022-11-02T07:49:17.335Z,4.40
2022-11-02T07:51:46.824Z,7.63
2022-11-02T07:54:13.802Z,9.25
2022-11-02T07:56:40.341Z,7.82
2022-11-02T07:59:07.317Z,8.77
2022-11-02T08:01:33.923Z,7.53
2022-11-02T08:04:00.461Z,5.45
2022-11-02T08:06:27.487Z,6.43
2022-11-02T08:08:54.488Z,7.25
2022-11-02T08:11:21.512Z,7.13
2022-11-02T08:13:48.079Z,4.20
2022-11-02T08:16:14.617Z,4.22
2022-11-02T08:18:41.191Z,9.52
2022-11-02T08:21:07.784Z,9.60
2022-11-02T08:23:34.414Z,5.32
2022-11-02T08:26:01.200Z,5.07
2022-11-02T08:28:36.601Z,3.95
2022-11-02T08:31:03.190Z,4.50
2022-11-02T08:33:29.809Z,5.50
2022-11-02T08:36:02.487Z,3.65
2022-11-02T08:38:29.139Z,3.90
2022-11-02T08:40:55.765Z,2.03
2022-11-02T08:43:22.666Z,6.53
2022-11-02T08:48:36.590Z,4.10
2022-11-02T08:51:03.740Z,2.00
2022-11-02T08:53:30.290Z,3.60
2022-11-02T08:55:58.892Z,2.97
2022-11-02T08:58:25.983Z,1.73
2022-11-02T09:00:54.068Z,2.53
2022-11-02T09:03:26.206Z,3.40
2022-11-02T09:06:01.751Z,3.70
2022-11-02T09:08:29.365Z,2.75
2022-11-02T09:11:00.433Z,3.35
2022-11-02T09:13:27.972Z,2.33
2022-11-02T09:15:57.786Z,3.70
2022-11-02T09:18:24.963Z,2.35
2022-11-02T09:20:52.114Z,3.13
2022-11-02T09:23:21.018Z,4.40
2022-11-02T09:25:48.645Z,1.75
2022-11-02T09:28:15.772Z,1.90
2022-11-02T09:30:42.731Z,2.15
2022-11-02T09:33:10.389Z,1.33
2022-11-02T09:35:45.728Z,3.30
2022-11-02T09:38:13.084Z,2.80
2022-11-02T09:41:03.657Z,2.17
2022-11-02T09:43:43.614Z,2.30
2022-11-02T09:46:19.983Z,1.92
2022-11-02T09:48:53.254Z,1.90
2022-11-02T09:51:28.069Z,1.55
2022-11-02T09:54:17.845Z,3.10
2022-11-02T09:56:46.253Z,1.02
2022-11-02T09:59:18.091Z,1.20
2022-11-02T10:01:50.825Z,2.70
2022-11-02T10:04:20.304Z,1.10
2022-11-02T10:07:02.803Z,1.48
2022-11-02T10:09:50.513Z,3.58
2022-11-02T10:12:38.814Z,2.30
2022-11-02T10:15:14.025Z,1.33
2022-11-02T10:17:43.334Z,1.30
2022-11-02T10:20:26.847Z,2.35
2022-11-02T10:23:01.719Z,2.15
2022-11-02T10:25:28.873Z,3.22
2022-11-02T10:28:04.431Z,2.85
2022-11-02T10:30:39.865Z,1.13
2022-11-02T10:33:21.378Z,2.45
2022-11-02T10:36:24.200Z,1.65
2022-11-02T10:39:02.462Z,1.85
2022-11-02T10:42:01.799Z,3.35
2022-11-02T10:44:44.566Z,2.65
2022-11-02T10:47:27.499Z,1.05
2022-11-02T10:50:18.791Z,3.72
2022-11-02T10:52:46.617Z,1.80
2022-11-02T10:55:26.265Z,0.77
2022-11-02T10:58:00.486Z,0.98
2022-11-02T11:00:33.312Z,2.30
2022-11-02T11:03:17.791Z,1.27
2022-11-02T11:05:50.795Z,1.73
2022-11-02T11:08:42.249Z,3.03
2022-11-02T11:11:44.204Z,1.15
2022-11-02T11:19:55.185Z,1.77
2022-11-02T11:22:40.346Z,1.92
2022-11-02T11:25:12.984Z,2.20
2022-11-02T11:27:54.603Z,1.00
2022-11-02T11:33:19.892Z,1.15
2022-11-02T11:35:50.119Z,1.08
2022-11-02T11:38:20.069Z,1.00
2022-11-02T11:41:00.714Z,2.25
2022-11-02T11:43:41.198Z,1.10
2022-11-02T11:46:09.390Z,1.13
2022-11-02T11:48:40.921Z,3.45
2022-11-02T11:51:26.463Z,1.33
2022-11-02T11:54:18.534Z,0.90
2022-11-02T11:56:47.131Z,2.85
2022-11-02T11:59:21.299Z,1.83
2022-11-02T12:01:48.911Z,2.88
2022-11-02T12:04:33.384Z,1.83
2022-11-02T12:07:21.363Z,1.05
2022-11-02T12:10:22.386Z,0.98
2022-11-02T12:13:09.938Z,1.92
2022-11-02T12:15:51.609Z,1.95
2022-11-02T12:18:33.856Z,3.83
2022-11-02T12:21:36.509Z,3.58
2022-11-02T12:24:32.111Z,2.10
2022-11-02T12:27:36.806Z,2.05
2022-11-02T12:30:12.446Z,2.28
2022-11-02T12:32:38.949Z,1.83
2022-11-02T12:35:40.280Z,4.75
2022-11-02T12:38:42.634Z,2.63
2022-11-02T12:41:32.515Z,2.80
2022-11-02T12:44:08.110Z,2.30
2022-11-02T12:46:49.176Z,2.47
2022-11-02T12:49:38.993Z,4.13
2022-11-02T12:52:21.100Z,1.25
2022-11-02T12:54:51.997Z,1.92
2022-11-02T12:57:22.165Z,1.50
2022-11-02T12:59:59.758Z,2.95
2022-11-02T13:02:54.108Z,2.15
2022-11-02T13:05:26.431Z,2.15
2022-11-02T13:08:03.565Z,1.67
2022-11-02T13:10:36.015Z,1.60
2022-11-02T13:13:05.289Z,1.98
2022-11-02T13:15:37.827Z,4.93
2022-11-02T13:18:13.632Z,2.03
2022-11-02T13:23:39.905Z,1.80
2022-11-02T13:26:31.766Z,1.02
2022-11-02T13:29:06.202Z,1.67
2022-11-02T13:31:38.107Z,2.35
2022-11-02T13:34:14.236Z,2.30
2022-11-02T13:36:41.412Z,2.63
2022-11-02T13:39:19.732Z,3.53
2022-11-02T13:41:55.344Z,3.58
2022-11-02T13:44:36.891Z,2.30
2022-11-02T13:47:13.537Z,1.42
2022-11-02T13:49:44.846Z,3.38
2022-11-02T13:52:18.193Z,1.75
2022-11-02T13:54:51.691Z,3.08
2022-11-02T13:57:35.775Z,1.63
2022-11-02T14:00:06.077Z,1.50
2022-11-02T14:02:41.346Z,3.35
2022-11-02T14:05:09.154Z,3.30
2022-11-02T14:07:42.309Z,1.67
2022-11-02T14:10:16.771Z,2.08
2022-11-02T14:12:50.898Z,1.50
2022-11-02T14:15:17.777Z,1.27
2022-11-02T14:17:53.401Z,2.42
2022-11-02T14:23:09.792Z,7.03
2022-11-02T14:25:45.209Z,4.47
2022-11-02T14:28:21.349Z,1.70
2022-11-02T14:30:54.530Z,1.35
2022-11-02T14:33:43.113Z,4.55
2022-11-02T14:36:10.085Z,1.88
2022-11-02T14:38:51.017Z,3.50
2022-11-02T14:41:23.613Z,3.60
2022-11-02T14:44:02.796Z,1.10
2022-11-02T14:46:44.394Z,3.05
2022-11-02T14:49:27.158Z,2.08
2022-11-02T14:52:03.462Z,2.15
2022-11-02T14:54:35.458Z,1.33
2022-11-02T14:57:17.076Z,2.47
2022-11-02T14:59:51.240Z,1.48
2022-11-02T15:02:27.652Z,0.95
2022-11-02T15:05:02.950Z,2.28
2022-11-02T15:07:37.114Z,1.85
2022-11-02T15:10:07.287Z,2.88
2022-11-02T15:12:41.042Z,2.00
2022-11-02T15:15:29.953Z,1.48
2022-11-02T15:17:57.000Z,2.33
2022-11-02T15:20:28.422Z,1.60
2022-11-02T15:23:07.385Z,0.90
2022-11-02T15:25:40.102Z,2.47
2022-11-02T15:28:17.895Z,4.30
2022-11-02T15:30:52.243Z,3.35
2022-11-02T15:33:31.706Z,4.22
2022-11-02T15:36:00.095Z,5.13
2022-11-02T15:38:33.835Z,1.85
2022-11-02T15:41:43.530Z,2.33
2022-11-02T15:44:41.012Z,2.55
2022-11-02T15:47:16.717Z,2.22
2022-11-02T15:53:01.984Z,0.88
2022-11-02T15:56:19.432Z,2.33
2022-11-02T15:59:17.590Z,2.40
2022-11-02T16:01:44.803Z,2.28
2022-11-02T16:04:21.931Z,3.15
2022-11-02T16:06:49.581Z,1.75
2022-11-02T16:09:35.097Z,2.92
2022-11-02T16:12:22.324Z,4.13
2022-11-02T16:14:58.299Z,1.98
2022-11-02T16:17:27.437Z,2.53
2022-11-02T16:20:16.661Z,3.10
2022-11-02T16:23:04.203Z,2.50
2022-11-02T16:25:39.629Z,1.02
2022-11-02T16:28:19.024Z,2.88
2022-11-02T16:31:17.875Z,2.25
2022-11-02T16:33:51.724Z,2.53
2022-11-02T16:36:35.553Z,3.58
2022-11-02T16:39:17.324Z,2.72
2022-11-02T16:41:52.504Z,3.03
2022-11-02T16:44:27.026Z,2.10
2022-11-02T16:46:56.638Z,4.78
2022-11-02T16:49:25.532Z,3.70
2022-11-02T16:51:54.816Z,2.35
2022-11-02T16:54:29.347Z,4.97
2022-11-02T16:57:00.578Z,2.78
2022-11-02T16:59:27.281Z,1.75
2022-11-02T17:02:00.124Z,3.75
2022-11-02T17:04:30.422Z,3.88
2022-11-02T17:07:12.184Z,3.60
2022-11-02T17:09:39.053Z,1.73
2022-11-02T17:12:10.423Z,2.35
2022-11-02T17:14:42.638Z,2.55
2022-11-02T17:17:35.217Z,1.58
2022-11-02T17:20:21.454Z,2.38
2022-11-02T17:25:35.522Z,2.20
2022-11-02T17:28:17.696Z,3.45
2022-11-02T17:30:45.997Z,4.63
2022-11-02T17:33:27.098Z,4.85
2022-11-02T17:35:57.566Z,6.45
2022-11-02T17:38:26.866Z,8.80
2022-11-02T17:40:54.130Z,7.65
2022-11-02T17:43:22.380Z,6.38
2022-11-02T17:45:59.430Z,5.32
2022-11-02T17:48:29.033Z,6.55
2022-11-02T17:50:57.694Z,7.82
2022-11-02T17:53:25.374Z,7.07
2022-11-02T17:55:52.515Z,7.32
2022-11-02T17:58:20.011Z,7.57
2022-11-02T18:00:47.028Z,10.95
2022-11-02T18:03:17.155Z,7.22
2022-11-02T18:05:48.315Z,6.80
2022-11-02T18:08:17.102Z,8.32
2022-11-02T18:10:46.636Z,9.63
2022-11-02T18:13:15.012Z,9.10
2022-11-02T18:15:42.728Z,5.72
2022-11-02T18:18:10.382Z,7.53
2022-11-02T18:20:41.562Z,11.48
2022-11-02T18:23:16.157Z,7.65
2022-11-02T18:25:42.919Z,14.15
2022-11-02T18:28:09.548Z,11.50
2022-11-02T18:30:36.134Z,10.07
2022-11-02T18:33:02.918Z,11.48
2022-11-02T18:35:29.753Z,8.88
2022-11-02T18:37:56.635Z,9.15
2022-11-02T18:40:23.706Z,8.82
2022-11-02T18:42:51.561Z,9.05
2022-11-02T18:45:18.688Z,12.02
2022-11-02T18:47:45.314Z,7.72
2022-11-02T18:50:14.067Z,9.07
2022-11-02T18:52:45.624Z,4.95
2022-11-02T18:55:12.177Z,10.70
2022-11-02T18:57:38.700Z,5.85
2022-11-02T19:00:05.792Z,10.52
2022-11-02T19:02:33.318Z,8.63
2022-11-02T19:04:59.980Z,15.50
2022-11-02T19:07:45.303Z,7.93
2022-11-02T19:10:11.926Z,9.37
2022-11-02T19:12:39.056Z,5.10
2022-11-02T19:15:06.144Z,6.18
2022-11-02T19:17:33.235Z,5.63
2022-11-02T19:19:59.910Z,5.78
2022-11-02T19:22:27.087Z,8.68
2022-11-02T19:24:53.714Z,7.20
2022-11-02T19:27:22.682Z,5.93
2022-11-02T19:29:52.645Z,4.78
2022-11-02T19:32:20.197Z,5.30
2022-11-02T19:34:47.361Z,5.45
2022-11-02T19:37:14.118Z,5.68
2022-11-02T19:39:40.731Z,6.60
2022-11-02T19:42:08.003Z,5.13
2022-11-02T19:44:41.183Z,6.22
2022-11-02T19:47:09.413Z,6.45
2022-11-02T19:49:36.528Z,4.40
2022-11-02T19:52:03.210Z,4.97
2022-11-02T19:54:29.871Z,6.35
2022-11-02T19:56:56.980Z,6.53
2022-11-02T19:59:24.070Z,5.38
2022-11-02T20:01:52.062Z,4.38
2022-11-02T20:04:18.834Z,4.03
2022-11-02T20:06:45.419Z,5.50
2022-11-02T20:09:18.455Z,2.88
2022-11-02T20:11:46.991Z,6.50
2022-11-02T20:14:15.587Z,4.22
2022-11-02T20:16:42.359Z,6.70
2022-11-02T20:19:09.821Z,2.80
2022-11-02T20:21:42.842Z,4.45
2022-11-02T20:24:10.670Z,5.75
2022-11-02T20:26:39.760Z,4.93
2022-11-02T20:29:06.849Z,5.60
2022-11-02T20:31:35.658Z,5.50
2022-11-02T20:34:03.782Z,5.88
2022-11-02T20:36:31.260Z,6.13
2022-11-02T20:38:58.306Z,7.18
2022-11-02T20:41:26.125Z,3.40
2022-11-02T20:43:55.551Z,4.18
2022-11-02T20:46:37.478Z,2.40
2022-11-02T20:49:19.938Z,3.65
2022-11-02T20:51:52.560Z,4.80
2022-11-02T20:54:20.070Z,4.18
2022-11-02T20:56:47.324Z,5.07
2022-11-02T20:59:14.630Z,2.97
2022-11-02T21:01:41.900Z,4.13
2022-11-02T21:04:09.247Z,3.17
2022-11-02T21:06:35.897Z,4.13
2022-11-02T21:09:09.022Z,2.90
2022-11-02T21:11:57.175Z,4.05
2022-11-02T21:14:23.671Z,3.53
2022-11-02T21:16:50.827Z,5.68
2022-11-02T21:19:17.831Z,3.95
2022-11-02T21:21:45.037Z,3.50
2022-11-02T21:24:12.445Z,4.22
2022-11-02T21:26:39.946Z,4.13
2022-11-02T21:29:06.482Z,4.07
2022-11-02T21:31:33.973Z,2.83
2022-11-02T21:34:00.521Z,4.90
2022-11-02T21:36:27.505Z,3.25
2022-11-02T21:38:54.129Z,2.50
2022-11-02T21:41:26.210Z,4.15
2022-11-02T21:43:53.165Z,2.25
2022-11-02T21:46:20.077Z,2.38
2022-11-02T21:48:47.002Z,4.00
2022-11-02T21:51:19.071Z,3.78
2022-11-02T21:53:47.874Z,3.85
2022-11-02T21:56:20.436Z,2.70
2022-11-02T21:58:47.697Z,3.08
2022-11-02T22:01:34.398Z,5.10
2022-11-02T22:04:02.124Z,6.55
2022-11-02T22:06:31.604Z,4.78
2022-11-02T22:08:59.423Z,3.33
2022-11-02T22:11:29.263Z,3.88
2022-11-02T22:13:58.436Z,3.50
2022-11-02T22:16:32.453Z,2.30
2022-11-02T22:19:20.357Z,4.53
2022-11-02T22:21:48.825Z,3.03
2022-11-02T22:24:15.886Z,5.47
2022-11-02T22:26:43.053Z,3.53
2022-11-02T22:29:10.233Z,3.80
2022-11-02T22:31:39.425Z,16.08
2022-11-02T22:34:08.250Z,6.85
2022-11-02T22:36:36.897Z,4.43
2022-11-02T22:39:05.367Z,5.30
2022-11-02T22:41:35.697Z,5.90
2022-11-02T22:44:05.502Z,8.10
2022-11-02T22:46:35.178Z,5.40
2022-11-02T22:49:04.547Z,8.40
2022-11-02T22:51:34.034Z,4.80
2022-11-02T22:54:21.286Z,5.65
2022-11-02T22:56:49.128Z,7.93
2022-11-02T22:59:15.996Z,7.57
2022-11-02T23:01:43.302Z,4.22
2022-11-02T23:04:11.581Z,5.57
2022-11-02T23:06:38.562Z,3.65
2022-11-02T23:09:05.812Z,7.43
2022-11-02T23:11:36.354Z,6.40
2022-11-02T23:14:12.702Z,7.85
2022-11-02T23:16:46.751Z,5.65
2022-11-02T23:19:31.780Z,11.73
2022-11-02T23:22:17.018Z,5.30
2022-11-02T23:25:09.757Z,7.85
2022-11-02T23:28:06.526Z,7.72
2022-11-02T23:30:54.683Z,4.50
2022-11-02T23:33:22.944Z,5.90
2022-11-02T23:36:08.629Z,11.10
2022-11-02T23:38:53.992Z,6.22
2022-11-02T23:41:21.321Z,5.70
2022-11-02T23:43:48.245Z,6.22
2022-11-02T23:46:15.641Z,4.82
2022-11-02T23:48:44.869Z,8.38
2022-11-02T23:51:32.424Z,9.20
2022-11-02T23:54:17.486Z,5.20
2022-11-02T23:56:44.674Z,7.95
2022-11-02T23:59:17.421Z,6.10
